CEL3 weather

East Linton (Kerr Field)
East Linton, Ontario, Canada

Public forecast

Using degrees Celsius for public forecast. Weather courtesy of forecast.io.

Closest aviation weather report (METAR) to East Linton (Kerr Field)

Closest report is Wiarton Airport, 8.6 nm (16.0 km) NW. Retrieved 2019/11/18 03:00 UTC (11 minutes ago):

CYVV 180300Z 11003KT 15SM FEW080 BKN140 M01/M07 A2993 RMK AC1AS6 SLP148

Closest aviation forecast (TAF) to East Linton (Kerr Field)

Forecast is more than 6 hours old.

Closest forecast is Wiarton Airport, 8.6 nm (16.0 km) NW. Retrieved 2019/11/17 20:00 UTC (7 hours ago):

TAF CYVV 171938Z 1720/1724 11005KT P6SM SCT180 FM172300 14008KT P6SM BKN150 RMK NXT FCST WILL BE ISSUED AT 181145Z